sensor_id;sensor_type;location;lat;lon;timestamp;P1;P2;P0
63305;PMS5003;50735;52.060;1.248;2023-07-31T00:00:43;9;9;
63305;PMS5003;50735;52.060;1.248;2023-07-31T00:03:15;7;7;
63305;PMS5003;50735;52.060;1.248;2023-07-31T00:05:47;11;11;
63305;PMS5003;50735;52.060;1.248;2023-07-31T00:08:19;8;8;
63305;PMS5003;50735;52.060;1.248;2023-07-31T00:10:51;16;13;
63305;PMS5003;50735;52.060;1.248;2023-07-31T00:13:23;9;9;
63305;PMS5003;50735;52.060;1.248;2023-07-31T00:15:56;8;8;
63305;PMS5003;50735;52.060;1.248;2023-07-31T00:18:27;11;7;
63305;PMS5003;50735;52.060;1.248;2023-07-31T00:20:59;8;8;
63305;PMS5003;50735;52.060;1.248;2023-07-31T00:23:31;12;10;
63305;PMS5003;50735;52.060;1.248;2023-07-31T00:26:03;6;4;
63305;PMS5003;50735;52.060;1.248;2023-07-31T00:28:34;11;8;
63305;PMS5003;50735;52.060;1.248;2023-07-31T00:31:06;12;9;
63305;PMS5003;50735;52.060;1.248;2023-07-31T00:33:38;8;7;
63305;PMS5003;50735;52.060;1.248;2023-07-31T00:36:10;12;10;
63305;PMS5003;50735;52.060;1.248;2023-07-31T00:38:41;11;9;
63305;PMS5003;50735;52.060;1.248;2023-07-31T00:41:13;11;9;
63305;PMS5003;50735;52.060;1.248;2023-07-31T00:43:45;12;11;
63305;PMS5003;50735;52.060;1.248;2023-07-31T00:46:16;11;10;
63305;PMS5003;50735;52.060;1.248;2023-07-31T00:48:48;9;9;
63305;PMS5003;50735;52.060;1.248;2023-07-31T00:51:20;18;12;
63305;PMS5003;50735;52.060;1.248;2023-07-31T00:53:53;15;10;
63305;PMS5003;50735;52.060;1.248;2023-07-31T00:56:25;16;10;
63305;PMS5003;50735;52.060;1.248;2023-07-31T00:58:59;12;10;
63305;PMS5003;50735;52.060;1.248;2023-07-31T01:01:31;14;13;
63305;PMS5003;50735;52.060;1.248;2023-07-31T01:04:02;13;9;
63305;PMS5003;50735;52.060;1.248;2023-07-31T01:06:36;11;10;
63305;PMS5003;50735;52.060;1.248;2023-07-31T01:09:16;11;9;
63305;PMS5003;50735;52.060;1.248;2023-07-31T01:11:56;11;10;
63305;PMS5003;50735;52.060;1.248;2023-07-31T01:14:31;14;10;
63305;PMS5003;50735;52.060;1.248;2023-07-31T01:17:04;11;9;
63305;PMS5003;50735;52.060;1.248;2023-07-31T01:19:36;11;11;
63305;PMS5003;50735;52.060;1.248;2023-07-31T01:22:13;9;9;
63305;PMS5003;50735;52.060;1.248;2023-07-31T01:24:59;9;8;
63305;PMS5003;50735;52.060;1.248;2023-07-31T01:27:44;11;11;
63305;PMS5003;50735;52.060;1.248;2023-07-31T01:30:24;9;7;
63305;PMS5003;50735;52.060;1.248;2023-07-31T01:32:59;11;10;
63305;PMS5003;50735;52.060;1.248;2023-07-31T01:35:32;12;9;
63305;PMS5003;50735;52.060;1.248;2023-07-31T01:38:04;11;9;
63305;PMS5003;50735;52.060;1.248;2023-07-31T01:40:36;12;10;
63305;PMS5003;50735;52.060;1.248;2023-07-31T01:43:08;15;12;
63305;PMS5003;50735;52.060;1.248;2023-07-31T01:45:40;18;9;
63305;PMS5003;50735;52.060;1.248;2023-07-31T01:48:12;12;10;
63305;PMS5003;50735;52.060;1.248;2023-07-31T01:50:44;9;7;
63305;PMS5003;50735;52.060;1.248;2023-07-31T01:53:15;11;8;
63305;PMS5003;50735;52.060;1.248;2023-07-31T01:55:47;8;5;
63305;PMS5003;50735;52.060;1.248;2023-07-31T01:58:19;12;9;
63305;PMS5003;50735;52.060;1.248;2023-07-31T02:00:50;7;5;
63305;PMS5003;50735;52.060;1.248;2023-07-31T02:03:22;8;7;
63305;PMS5003;50735;52.060;1.248;2023-07-31T02:05:55;10;6;
63305;PMS5003;50735;52.060;1.248;2023-07-31T02:08:26;5;5;
63305;PMS5003;50735;52.060;1.248;2023-07-31T02:10:58;9;9;
63305;PMS5003;50735;52.060;1.248;2023-07-31T02:13:30;10;5;
63305;PMS5003;50735;52.060;1.248;2023-07-31T02:16:02;7;7;
63305;PMS5003;50735;52.060;1.248;2023-07-31T02:18:34;10;6;
63305;PMS5003;50735;52.060;1.248;2023-07-31T02:21:06;5;4;
63305;PMS5003;50735;52.060;1.248;2023-07-31T02:23:37;10;7;
63305;PMS5003;50735;52.060;1.248;2023-07-31T02:26:09;5;4;
63305;PMS5003;50735;52.060;1.248;2023-07-31T02:28:41;8;6;
63305;PMS5003;50735;52.060;1.248;2023-07-31T02:31:12;8;8;
63305;PMS5003;50735;52.060;1.248;2023-07-31T02:33:44;8;6;
63305;PMS5003;50735;52.060;1.248;2023-07-31T02:36:16;8;5;
63305;PMS5003;50735;52.060;1.248;2023-07-31T02:38:48;4;4;
63305;PMS5003;50735;52.060;1.248;2023-07-31T02:41:20;5;3;
63305;PMS5003;50735;52.060;1.248;2023-07-31T02:43:51;3;3;
63305;PMS5003;50735;52.060;1.248;2023-07-31T02:46:23;7;4;
63305;PMS5003;50735;52.060;1.248;2023-07-31T02:48:55;3;3;
63305;PMS5003;50735;52.060;1.248;2023-07-31T02:51:26;8;5;
63305;PMS5003;50735;52.060;1.248;2023-07-31T02:53:58;7;4;
63305;PMS5003;50735;52.060;1.248;2023-07-31T02:56:30;4;3;
63305;PMS5003;50735;52.060;1.248;2023-07-31T02:59:02;7;5;
63305;PMS5003;50735;52.060;1.248;2023-07-31T03:01:33;3;3;
63305;PMS5003;50735;52.060;1.248;2023-07-31T03:04:07;3;3;
63305;PMS5003;50735;52.060;1.248;2023-07-31T03:06:39;5;5;
63305;PMS5003;50735;52.060;1.248;2023-07-31T03:09:11;7;4;
63305;PMS5003;50735;52.060;1.248;2023-07-31T03:11:42;2;2;
63305;PMS5003;50735;52.060;1.248;2023-07-31T03:14:14;3;3;
63305;PMS5003;50735;52.060;1.248;2023-07-31T03:16:46;3;3;
63305;PMS5003;50735;52.060;1.248;2023-07-31T03:19:17;2;2;
63305;PMS5003;50735;52.060;1.248;2023-07-31T03:21:49;3;3;
63305;PMS5003;50735;52.060;1.248;2023-07-31T03:24:21;2;2;
63305;PMS5003;50735;52.060;1.248;2023-07-31T03:26:53;4;3;
63305;PMS5003;50735;52.060;1.248;2023-07-31T03:29:24;3;3;
63305;PMS5003;50735;52.060;1.248;2023-07-31T03:31:56;2;2;
63305;PMS5003;50735;52.060;1.248;2023-07-31T03:34:28;1;1;
63305;PMS5003;50735;52.060;1.248;2023-07-31T03:36:59;0;0;
63305;PMS5003;50735;52.060;1.248;2023-07-31T03:39:31;2;2;
63305;PMS5003;50735;52.060;1.248;2023-07-31T03:42:03;4;3;
63305;PMS5003;50735;52.060;1.248;2023-07-31T03:44:36;2;2;
63305;PMS5003;50735;52.060;1.248;2023-07-31T03:47:07;1;1;
63305;PMS5003;50735;52.060;1.248;2023-07-31T03:49:39;2;1;
63305;PMS5003;50735;52.060;1.248;2023-07-31T03:52:11;2;2;
63305;PMS5003;50735;52.060;1.248;2023-07-31T03:54:43;3;2;
63305;PMS5003;50735;52.060;1.248;2023-07-31T03:57:14;2;2;
63305;PMS5003;50735;52.060;1.248;2023-07-31T03:59:46;2;2;
63305;PMS5003;50735;52.060;1.248;2023-07-31T04:02:18;1;1;
63305;PMS5003;50735;52.060;1.248;2023-07-31T04:04:50;2;2;
63305;PMS5003;50735;52.060;1.248;2023-07-31T04:07:21;1;1;
63305;PMS5003;50735;52.060;1.248;2023-07-31T04:09:53;2;2;
63305;PMS5003;50735;52.060;1.248;2023-07-31T04:12:25;0;0;
63305;PMS5003;50735;52.060;1.248;2023-07-31T04:14:57;1;1;
63305;PMS5003;50735;52.060;1.248;2023-07-31T04:17:29;1;1;
63305;PMS5003;50735;52.060;1.248;2023-07-31T04:20:00;2;1;
63305;PMS5003;50735;52.060;1.248;2023-07-31T04:22:32;1;1;
63305;PMS5003;50735;52.060;1.248;2023-07-31T04:25:04;2;2;
63305;PMS5003;50735;52.060;1.248;2023-07-31T04:27:36;2;2;
63305;PMS5003;50735;52.060;1.248;2023-07-31T04:30:08;1;1;
63305;PMS5003;50735;52.060;1.248;2023-07-31T04:32:41;2;2;
63305;PMS5003;50735;52.060;1.248;2023-07-31T04:35:13;2;2;
63305;PMS5003;50735;52.060;1.248;2023-07-31T04:37:44;2;2;
63305;PMS5003;50735;52.060;1.248;2023-07-31T04:40:16;4;2;
63305;PMS5003;50735;52.060;1.248;2023-07-31T04:42:48;3;2;
63305;PMS5003;50735;52.060;1.248;2023-07-31T04:45:20;3;3;
63305;PMS5003;50735;52.060;1.248;2023-07-31T04:47:52;6;3;
63305;PMS5003;50735;52.060;1.248;2023-07-31T04:50:23;1;1;
63305;PMS5003;50735;52.060;1.248;2023-07-31T04:52:55;1;1;
63305;PMS5003;50735;52.060;1.248;2023-07-31T04:55:27;3;3;
63305;PMS5003;50735;52.060;1.248;2023-07-31T04:57:59;3;3;
63305;PMS5003;50735;52.060;1.248;2023-07-31T05:00:30;3;2;
63305;PMS5003;50735;52.060;1.248;2023-07-31T05:03:02;2;0;
63305;PMS5003;50735;52.060;1.248;2023-07-31T05:05:34;2;2;
63305;PMS5003;50735;52.060;1.248;2023-07-31T05:08:06;1;1;
63305;PMS5003;50735;52.060;1.248;2023-07-31T05:10:37;6;2;
63305;PMS5003;50735;52.060;1.248;2023-07-31T05:13:09;3;3;
63305;PMS5003;50735;52.060;1.248;2023-07-31T05:15:41;2;2;
63305;PMS5003;50735;52.060;1.248;2023-07-31T05:18:12;3;1;
63305;PMS5003;50735;52.060;1.248;2023-07-31T05:20:44;3;3;
63305;PMS5003;50735;52.060;1.248;2023-07-31T05:23:16;4;4;
63305;PMS5003;50735;52.060;1.248;2023-07-31T05:25:48;3;3;
63305;PMS5003;50735;52.060;1.248;2023-07-31T05:28:20;5;3;
63305;PMS5003;50735;52.060;1.248;2023-07-31T05:30:52;4;3;
63305;PMS5003;50735;52.060;1.248;2023-07-31T05:33:30;4;2;
63305;PMS5003;50735;52.060;1.248;2023-07-31T05:36:03;2;2;
63305;PMS5003;50735;52.060;1.248;2023-07-31T05:38:35;3;3;
63305;PMS5003;50735;52.060;1.248;2023-07-31T05:41:07;0;0;
63305;PMS5003;50735;52.060;1.248;2023-07-31T05:43:39;3;3;
63305;PMS5003;50735;52.060;1.248;2023-07-31T05:46:11;2;2;
63305;PMS5003;50735;52.060;1.248;2023-07-31T05:48:43;2;2;
63305;PMS5003;50735;52.060;1.248;2023-07-31T05:51:14;2;2;
63305;PMS5003;50735;52.060;1.248;2023-07-31T05:53:46;1;1;
63305;PMS5003;50735;52.060;1.248;2023-07-31T05:56:18;3;3;
63305;PMS5003;50735;52.060;1.248;2023-07-31T05:58:50;3;2;
63305;PMS5003;50735;52.060;1.248;2023-07-31T06:01:21;2;2;
63305;PMS5003;50735;52.060;1.248;2023-07-31T06:03:53;0;0;
63305;PMS5003;50735;52.060;1.248;2023-07-31T06:06:25;4;3;
63305;PMS5003;50735;52.060;1.248;2023-07-31T06:08:57;4;1;
63305;PMS5003;50735;52.060;1.248;2023-07-31T06:11:28;1;1;
63305;PMS5003;50735;52.060;1.248;2023-07-31T06:14:00;2;2;
63305;PMS5003;50735;52.060;1.248;2023-07-31T06:16:32;1;1;
63305;PMS5003;50735;52.060;1.248;2023-07-31T06:19:04;1;1;
63305;PMS5003;50735;52.060;1.248;2023-07-31T06:21:35;1;1;
63305;PMS5003;50735;52.060;1.248;2023-07-31T06:24:07;2;0;
63305;PMS5003;50735;52.060;1.248;2023-07-31T06:26:40;4;2;
63305;PMS5003;50735;52.060;1.248;2023-07-31T06:29:11;1;1;
63305;PMS5003;50735;52.060;1.248;2023-07-31T06:31:43;2;2;
63305;PMS5003;50735;52.060;1.248;2023-07-31T06:34:16;3;1;
63305;PMS5003;50735;52.060;1.248;2023-07-31T06:36:48;2;2;
63305;PMS5003;50735;52.060;1.248;2023-07-31T06:39:20;2;2;
63305;PMS5003;50735;52.060;1.248;2023-07-31T06:41:52;3;1;
63305;PMS5003;50735;52.060;1.248;2023-07-31T06:44:24;1;1;
63305;PMS5003;50735;52.060;1.248;2023-07-31T06:46:55;1;1;
63305;PMS5003;50735;52.060;1.248;2023-07-31T06:49:27;1;1;
63305;PMS5003;50735;52.060;1.248;2023-07-31T06:51:59;2;1;
63305;PMS5003;50735;52.060;1.248;2023-07-31T06:54:30;1;1;
63305;PMS5003;50735;52.060;1.248;2023-07-31T06:57:02;1;1;
63305;PMS5003;50735;52.060;1.248;2023-07-31T06:59:35;0;0;
63305;PMS5003;50735;52.060;1.248;2023-07-31T07:02:07;2;1;
63305;PMS5003;50735;52.060;1.248;2023-07-31T07:04:38;1;1;
63305;PMS5003;50735;52.060;1.248;2023-07-31T07:07:10;3;1;
63305;PMS5003;50735;52.060;1.248;2023-07-31T07:09:42;2;2;
63305;PMS5003;50735;52.060;1.248;2023-07-31T07:12:13;3;1;
63305;PMS5003;50735;52.060;1.248;2023-07-31T07:14:45;0;0;
63305;PMS5003;50735;52.060;1.248;2023-07-31T07:17:17;1;1;
63305;PMS5003;50735;52.060;1.248;2023-07-31T07:19:49;1;1;
63305;PMS5003;50735;52.060;1.248;2023-07-31T07:22:20;1;1;
63305;PMS5003;50735;52.060;1.248;2023-07-31T07:24:52;1;1;
63305;PMS5003;50735;52.060;1.248;2023-07-31T07:27:25;1;1;
63305;PMS5003;50735;52.060;1.248;2023-07-31T07:29:56;0;0;
63305;PMS5003;50735;52.060;1.248;2023-07-31T07:32:28;1;1;
63305;PMS5003;50735;52.060;1.248;2023-07-31T07:35:00;2;2;
63305;PMS5003;50735;52.060;1.248;2023-07-31T07:37:32;0;0;
63305;PMS5003;50735;52.060;1.248;2023-07-31T07:40:04;1;1;
63305;PMS5003;50735;52.060;1.248;2023-07-31T07:42:36;0;0;
63305;PMS5003;50735;52.060;1.248;2023-07-31T07:45:08;1;1;
63305;PMS5003;50735;52.060;1.248;2023-07-31T07:47:40;1;1;
63305;PMS5003;50735;52.060;1.248;2023-07-31T07:50:12;2;0;
63305;PMS5003;50735;52.060;1.248;2023-07-31T07:52:44;2;2;
63305;PMS5003;50735;52.060;1.248;2023-07-31T07:55:15;3;1;
63305;PMS5003;50735;52.060;1.248;2023-07-31T07:57:47;3;1;
63305;PMS5003;50735;52.060;1.248;2023-07-31T08:00:19;1;1;
63305;PMS5003;50735;52.060;1.248;2023-07-31T08:02:51;1;1;
63305;PMS5003;50735;52.060;1.248;2023-07-31T08:05:22;1;1;
63305;PMS5003;50735;52.060;1.248;2023-07-31T08:07:54;1;1;
63305;PMS5003;50735;52.060;1.248;2023-07-31T08:10:26;2;2;
63305;PMS5003;50735;52.060;1.248;2023-07-31T08:12:57;2;2;
63305;PMS5003;50735;52.060;1.248;2023-07-31T08:15:29;1;1;
63305;PMS5003;50735;52.060;1.248;2023-07-31T08:18:01;0;0;
63305;PMS5003;50735;52.060;1.248;2023-07-31T08:20:33;1;1;
63305;PMS5003;50735;52.060;1.248;2023-07-31T08:23:04;1;1;
63305;PMS5003;50735;52.060;1.248;2023-07-31T08:25:36;0;0;
63305;PMS5003;50735;52.060;1.248;2023-07-31T08:28:09;0;0;
63305;PMS5003;50735;52.060;1.248;2023-07-31T08:30:41;2;2;
63305;PMS5003;50735;52.060;1.248;2023-07-31T08:33:13;1;1;
63305;PMS5003;50735;52.060;1.248;2023-07-31T08:35:45;2;2;
63305;PMS5003;50735;52.060;1.248;2023-07-31T08:38:16;1;1;
63305;PMS5003;50735;52.060;1.248;2023-07-31T08:40:48;1;1;
63305;PMS5003;50735;52.060;1.248;2023-07-31T08:43:20;0;0;
63305;PMS5003;50735;52.060;1.248;2023-07-31T08:45:53;0;0;
63305;PMS5003;50735;52.060;1.248;2023-07-31T08:48:25;1;1;
63305;PMS5003;50735;52.060;1.248;2023-07-31T08:50:58;1;1;
63305;PMS5003;50735;52.060;1.248;2023-07-31T08:53:30;1;0;
63305;PMS5003;50735;52.060;1.248;2023-07-31T08:56:02;3;0;
63305;PMS5003;50735;52.060;1.248;2023-07-31T08:58:34;0;0;
63305;PMS5003;50735;52.060;1.248;2023-07-31T09:01:08;2;1;
63305;PMS5003;50735;52.060;1.248;2023-07-31T09:03:40;0;0;
63305;PMS5003;50735;52.060;1.248;2023-07-31T09:06:13;1;1;
63305;PMS5003;50735;52.060;1.248;2023-07-31T09:08:49;1;1;
63305;PMS5003;50735;52.060;1.248;2023-07-31T09:11:21;3;2;
63305;PMS5003;50735;52.060;1.248;2023-07-31T09:13:54;1;1;
63305;PMS5003;50735;52.060;1.248;2023-07-31T09:16:28;1;1;
63305;PMS5003;50735;52.060;1.248;2023-07-31T09:19:00;4;1;
63305;PMS5003;50735;52.060;1.248;2023-07-31T09:21:32;1;1;
63305;PMS5003;50735;52.060;1.248;2023-07-31T09:24:04;0;0;
63305;PMS5003;50735;52.060;1.248;2023-07-31T09:26:36;2;2;
63305;PMS5003;50735;52.060;1.248;2023-07-31T09:29:18;3;1;
63305;PMS5003;50735;52.060;1.248;2023-07-31T09:31:51;2;2;
63305;PMS5003;50735;52.060;1.248;2023-07-31T09:34:28;3;3;
63305;PMS5003;50735;52.060;1.248;2023-07-31T09:37:01;5;3;
63305;PMS5003;50735;52.060;1.248;2023-07-31T09:39:34;3;1;
63305;PMS5003;50735;52.060;1.248;2023-07-31T09:42:24;0;0;
63305;PMS5003;50735;52.060;1.248;2023-07-31T09:44:58;1;1;
63305;PMS5003;50735;52.060;1.248;2023-07-31T09:47:39;2;2;
63305;PMS5003;50735;52.060;1.248;2023-07-31T09:50:17;1;1;
63305;PMS5003;50735;52.060;1.248;2023-07-31T09:52:51;1;1;
63305;PMS5003;50735;52.060;1.248;2023-07-31T09:55:24;1;1;
63305;PMS5003;50735;52.060;1.248;2023-07-31T09:57:55;2;1;
63305;PMS5003;50735;52.060;1.248;2023-07-31T10:00:29;0;0;
63305;PMS5003;50735;52.060;1.248;2023-07-31T10:03:02;1;1;
63305;PMS5003;50735;52.060;1.248;2023-07-31T10:05:37;1;1;
63305;PMS5003;50735;52.060;1.248;2023-07-31T10:08:13;2;2;
63305;PMS5003;50735;52.060;1.248;2023-07-31T10:10:46;2;2;
63305;PMS5003;50735;52.060;1.248;2023-07-31T10:13:18;4;4;
63305;PMS5003;50735;52.060;1.248;2023-07-31T10:15:50;3;1;
63305;PMS5003;50735;52.060;1.248;2023-07-31T10:18:22;1;1;
63305;PMS5003;50735;52.060;1.248;2023-07-31T10:20:54;2;2;
63305;PMS5003;50735;52.060;1.248;2023-07-31T10:23:27;3;3;
63305;PMS5003;50735;52.060;1.248;2023-07-31T10:26:00;2;2;
63305;PMS5003;50735;52.060;1.248;2023-07-31T10:28:33;1;1;
63305;PMS5003;50735;52.060;1.248;2023-07-31T10:31:08;2;2;
63305;PMS5003;50735;52.060;1.248;2023-07-31T10:33:40;3;1;
63305;PMS5003;50735;52.060;1.248;2023-07-31T10:36:13;1;1;
63305;PMS5003;50735;52.060;1.248;2023-07-31T10:38:46;1;1;
63305;PMS5003;50735;52.060;1.248;2023-07-31T10:41:24;1;1;
63305;PMS5003;50735;52.060;1.248;2023-07-31T10:44:00;2;1;
63305;PMS5003;50735;52.060;1.248;2023-07-31T10:46:33;3;2;
63305;PMS5003;50735;52.060;1.248;2023-07-31T10:49:04;0;0;
63305;PMS5003;50735;52.060;1.248;2023-07-31T10:51:36;1;1;
63305;PMS5003;50735;52.060;1.248;2023-07-31T10:54:11;5;2;
63305;PMS5003;50735;52.060;1.248;2023-07-31T10:56:44;3;2;
63305;PMS5003;50735;52.060;1.248;2023-07-31T10:59:16;3;2;
63305;PMS5003;50735;52.060;1.248;2023-07-31T11:01:49;3;3;
63305;PMS5003;50735;52.060;1.248;2023-07-31T11:04:22;2;2;
63305;PMS5003;50735;52.060;1.248;2023-07-31T11:06:56;2;2;
63305;PMS5003;50735;52.060;1.248;2023-07-31T11:09:29;2;2;
63305;PMS5003;50735;52.060;1.248;2023-07-31T11:12:02;1;1;
63305;PMS5003;50735;52.060;1.248;2023-07-31T11:14:35;1;1;
63305;PMS5003;50735;52.060;1.248;2023-07-31T11:17:06;3;3;
63305;PMS5003;50735;52.060;1.248;2023-07-31T11:19:39;2;2;
63305;PMS5003;50735;52.060;1.248;2023-07-31T11:22:11;2;2;
63305;PMS5003;50735;52.060;1.248;2023-07-31T11:24:42;1;1;
63305;PMS5003;50735;52.060;1.248;2023-07-31T11:27:15;3;1;
63305;PMS5003;50735;52.060;1.248;2023-07-31T11:29:47;1;1;
63305;PMS5003;50735;52.060;1.248;2023-07-31T11:32:18;3;2;
63305;PMS5003;50735;52.060;1.248;2023-07-31T11:34:51;2;2;
63305;PMS5003;50735;52.060;1.248;2023-07-31T11:37:23;3;3;
63305;PMS5003;50735;52.060;1.248;2023-07-31T11:40:02;2;2;
63305;PMS5003;50735;52.060;1.248;2023-07-31T11:42:34;3;3;
63305;PMS5003;50735;52.060;1.248;2023-07-31T11:45:08;2;2;
63305;PMS5003;50735;52.060;1.248;2023-07-31T11:47:41;3;3;
63305;PMS5003;50735;52.060;1.248;2023-07-31T11:50:12;5;3;
63305;PMS5003;50735;52.060;1.248;2023-07-31T11:52:44;1;1;
63305;PMS5003;50735;52.060;1.248;2023-07-31T11:55:20;2;2;
63305;PMS5003;50735;52.060;1.248;2023-07-31T11:57:55;4;2;
63305;PMS5003;50735;52.060;1.248;2023-07-31T12:00:28;3;1;
63305;PMS5003;50735;52.060;1.248;2023-07-31T12:03:00;2;2;
63305;PMS5003;50735;52.060;1.248;2023-07-31T12:05:31;2;2;
63305;PMS5003;50735;52.060;1.248;2023-07-31T12:08:05;1;1;
63305;PMS5003;50735;52.060;1.248;2023-07-31T12:10:40;2;2;
63305;PMS5003;50735;52.060;1.248;2023-07-31T12:13:19;3;3;
63305;PMS5003;50735;52.060;1.248;2023-07-31T12:15:53;2;2;
63305;PMS5003;50735;52.060;1.248;2023-07-31T12:18:27;2;2;
63305;PMS5003;50735;52.060;1.248;2023-07-31T12:21:01;2;2;
63305;PMS5003;50735;52.060;1.248;2023-07-31T12:23:36;2;2;
63305;PMS5003;50735;52.060;1.248;2023-07-31T12:26:09;2;2;
63305;PMS5003;50735;52.060;1.248;2023-07-31T12:28:44;2;2;
63305;PMS5003;50735;52.060;1.248;2023-07-31T12:31:18;3;3;
63305;PMS5003;50735;52.060;1.248;2023-07-31T12:33:52;4;3;
63305;PMS5003;50735;52.060;1.248;2023-07-31T12:36:24;3;2;
63305;PMS5003;50735;52.060;1.248;2023-07-31T12:38:56;3;3;
63305;PMS5003;50735;52.060;1.248;2023-07-31T12:41:28;1;1;
63305;PMS5003;50735;52.060;1.248;2023-07-31T12:43:59;5;3;
63305;PMS5003;50735;52.060;1.248;2023-07-31T12:46:31;0;0;
63305;PMS5003;50735;52.060;1.248;2023-07-31T12:49:03;2;2;
63305;PMS5003;50735;52.060;1.248;2023-07-31T12:51:34;2;2;
63305;PMS5003;50735;52.060;1.248;2023-07-31T12:54:06;2;1;
63305;PMS5003;50735;52.060;1.248;2023-07-31T12:56:38;2;2;
63305;PMS5003;50735;52.060;1.248;2023-07-31T12:59:09;2;2;
63305;PMS5003;50735;52.060;1.248;2023-07-31T13:01:41;1;1;
63305;PMS5003;50735;52.060;1.248;2023-07-31T13:04:13;3;3;
63305;PMS5003;50735;52.060;1.248;2023-07-31T13:06:45;1;1;
63305;PMS5003;50735;52.060;1.248;2023-07-31T13:09:16;1;1;
63305;PMS5003;50735;52.060;1.248;2023-07-31T13:11:48;2;2;
63305;PMS5003;50735;52.060;1.248;2023-07-31T13:14:20;2;2;
63305;PMS5003;50735;52.060;1.248;2023-07-31T13:16:52;3;3;
63305;PMS5003;50735;52.060;1.248;2023-07-31T13:19:23;2;2;
63305;PMS5003;50735;52.060;1.248;2023-07-31T13:21:55;3;3;
63305;PMS5003;50735;52.060;1.248;2023-07-31T13:24:27;3;3;
63305;PMS5003;50735;52.060;1.248;2023-07-31T13:26:58;3;3;
63305;PMS5003;50735;52.060;1.248;2023-07-31T13:29:30;3;3;
63305;PMS5003;50735;52.060;1.248;2023-07-31T13:32:02;3;3;
63305;PMS5003;50735;52.060;1.248;2023-07-31T13:34:34;1;1;
63305;PMS5003;50735;52.060;1.248;2023-07-31T13:37:07;4;3;
63305;PMS5003;50735;52.060;1.248;2023-07-31T13:39:38;2;2;
63305;PMS5003;50735;52.060;1.248;2023-07-31T13:42:10;4;4;
63305;PMS5003;50735;52.060;1.248;2023-07-31T13:44:42;3;3;
63305;PMS5003;50735;52.060;1.248;2023-07-31T13:47:14;4;2;
63305;PMS5003;50735;52.060;1.248;2023-07-31T13:49:45;4;3;
63305;PMS5003;50735;52.060;1.248;2023-07-31T13:52:17;3;3;
63305;PMS5003;50735;52.060;1.248;2023-07-31T13:54:49;4;4;
63305;PMS5003;50735;52.060;1.248;2023-07-31T13:57:21;5;3;
63305;PMS5003;50735;52.060;1.248;2023-07-31T13:59:52;6;3;
63305;PMS5003;50735;52.060;1.248;2023-07-31T14:02:24;3;3;
63305;PMS5003;50735;52.060;1.248;2023-07-31T14:04:56;7;4;
63305;PMS5003;50735;52.060;1.248;2023-07-31T14:07:27;4;4;
63305;PMS5003;50735;52.060;1.248;2023-07-31T14:09:59;2;2;
63305;PMS5003;50735;52.060;1.248;2023-07-31T14:12:31;1;1;
63305;PMS5003;50735;52.060;1.248;2023-07-31T14:15:03;3;3;
63305;PMS5003;50735;52.060;1.248;2023-07-31T14:17:35;3;3;
63305;PMS5003;50735;52.060;1.248;2023-07-31T14:20:07;2;2;
63305;PMS5003;50735;52.060;1.248;2023-07-31T14:22:40;4;4;
63305;PMS5003;50735;52.060;1.248;2023-07-31T14:25:12;1;1;
63305;PMS5003;50735;52.060;1.248;2023-07-31T14:27:44;1;1;
63305;PMS5003;50735;52.060;1.248;2023-07-31T14:30:16;3;3;
63305;PMS5003;50735;52.060;1.248;2023-07-31T14:32:47;4;4;
63305;PMS5003;50735;52.060;1.248;2023-07-31T14:35:19;4;3;
63305;PMS5003;50735;52.060;1.248;2023-07-31T14:37:51;3;3;
63305;PMS5003;50735;52.060;1.248;2023-07-31T14:40:22;6;6;
63305;PMS5003;50735;52.060;1.248;2023-07-31T14:42:54;6;4;
63305;PMS5003;50735;52.060;1.248;2023-07-31T14:45:27;6;5;
63305;PMS5003;50735;52.060;1.248;2023-07-31T14:47:58;5;4;
63305;PMS5003;50735;52.060;1.248;2023-07-31T14:50:30;4;4;
63305;PMS5003;50735;52.060;1.248;2023-07-31T14:53:02;5;3;
63305;PMS5003;50735;52.060;1.248;2023-07-31T14:55:34;4;4;
63305;PMS5003;50735;52.060;1.248;2023-07-31T14:58:06;5;5;
63305;PMS5003;50735;52.060;1.248;2023-07-31T15:00:37;4;4;
63305;PMS5003;50735;52.060;1.248;2023-07-31T15:03:09;3;3;
63305;PMS5003;50735;52.060;1.248;2023-07-31T15:05:41;8;4;
63305;PMS5003;50735;52.060;1.248;2023-07-31T15:08:13;5;4;
63305;PMS5003;50735;52.060;1.248;2023-07-31T15:10:44;9;5;
63305;PMS5003;50735;52.060;1.248;2023-07-31T15:13:16;7;5;
63305;PMS5003;50735;52.060;1.248;2023-07-31T15:15:48;10;8;
63305;PMS5003;50735;52.060;1.248;2023-07-31T15:18:20;7;5;
63305;PMS5003;50735;52.060;1.248;2023-07-31T15:20:53;10;10;
63305;PMS5003;50735;52.060;1.248;2023-07-31T15:23:25;8;3;
63305;PMS5003;50735;52.060;1.248;2023-07-31T15:25:57;6;3;
63305;PMS5003;50735;52.060;1.248;2023-07-31T15:28:30;7;6;
63305;PMS5003;50735;52.060;1.248;2023-07-31T15:31:02;8;4;
63305;PMS5003;50735;52.060;1.248;2023-07-31T15:33:34;5;4;
63305;PMS5003;50735;52.060;1.248;2023-07-31T15:36:06;6;6;
63305;PMS5003;50735;52.060;1.248;2023-07-31T15:38:38;7;5;
63305;PMS5003;50735;52.060;1.248;2023-07-31T15:41:10;7;6;
63305;PMS5003;50735;52.060;1.248;2023-07-31T15:43:42;5;4;
63305;PMS5003;50735;52.060;1.248;2023-07-31T15:46:13;4;4;
63305;PMS5003;50735;52.060;1.248;2023-07-31T15:48:46;8;6;
63305;PMS5003;50735;52.060;1.248;2023-07-31T15:51:18;10;7;
63305;PMS5003;50735;52.060;1.248;2023-07-31T15:53:49;7;6;
63305;PMS5003;50735;52.060;1.248;2023-07-31T15:56:21;6;6;
63305;PMS5003;50735;52.060;1.248;2023-07-31T15:58:53;5;5;
63305;PMS5003;50735;52.060;1.248;2023-07-31T16:01:24;9;8;
63305;PMS5003;50735;52.060;1.248;2023-07-31T16:03:57;6;6;
63305;PMS5003;50735;52.060;1.248;2023-07-31T16:06:28;6;6;
63305;PMS5003;50735;52.060;1.248;2023-07-31T16:09:00;9;6;
63305;PMS5003;50735;52.060;1.248;2023-07-31T16:11:32;9;7;
63305;PMS5003;50735;52.060;1.248;2023-07-31T16:14:04;5;5;
63305;PMS5003;50735;52.060;1.248;2023-07-31T16:16:35;9;6;
63305;PMS5003;50735;52.060;1.248;2023-07-31T16:19:07;5;5;
63305;PMS5003;50735;52.060;1.248;2023-07-31T16:21:39;6;5;
63305;PMS5003;50735;52.060;1.248;2023-07-31T16:24:11;7;5;
63305;PMS5003;50735;52.060;1.248;2023-07-31T16:26:42;7;6;
63305;PMS5003;50735;52.060;1.248;2023-07-31T16:29:14;10;6;
63305;PMS5003;50735;52.060;1.248;2023-07-31T16:31:46;6;6;
63305;PMS5003;50735;52.060;1.248;2023-07-31T16:34:17;5;5;
63305;PMS5003;50735;52.060;1.248;2023-07-31T16:36:49;8;7;
63305;PMS5003;50735;52.060;1.248;2023-07-31T16:39:21;7;7;
63305;PMS5003;50735;52.060;1.248;2023-07-31T16:41:53;7;6;
63305;PMS5003;50735;52.060;1.248;2023-07-31T16:44:25;6;5;
63305;PMS5003;50735;52.060;1.248;2023-07-31T16:46:57;6;5;
63305;PMS5003;50735;52.060;1.248;2023-07-31T16:49:28;9;7;
63305;PMS5003;50735;52.060;1.248;2023-07-31T16:52:00;6;4;
63305;PMS5003;50735;52.060;1.248;2023-07-31T16:54:32;5;5;
63305;PMS5003;50735;52.060;1.248;2023-07-31T16:57:05;8;5;
63305;PMS5003;50735;52.060;1.248;2023-07-31T16:59:37;7;7;
63305;PMS5003;50735;52.060;1.248;2023-07-31T17:02:09;4;4;
63305;PMS5003;50735;52.060;1.248;2023-07-31T17:04:40;6;6;
63305;PMS5003;50735;52.060;1.248;2023-07-31T17:07:12;7;4;
63305;PMS5003;50735;52.060;1.248;2023-07-31T17:09:44;10;6;
63305;PMS5003;50735;52.060;1.248;2023-07-31T17:12:16;6;4;
63305;PMS5003;50735;52.060;1.248;2023-07-31T17:14:48;6;5;
63305;PMS5003;50735;52.060;1.248;2023-07-31T17:17:20;7;6;
63305;PMS5003;50735;52.060;1.248;2023-07-31T17:19:51;5;3;
63305;PMS5003;50735;52.060;1.248;2023-07-31T17:22:23;8;7;